createdAt,value
2022-11-08T00:08:54.013Z,98218.53
2022-11-08T00:13:59.764Z,98214.78
2022-11-08T00:19:02.663Z,98207.91
2022-11-08T00:24:07.511Z,98214.78
2022-11-08T00:29:10.219Z,98212.38
2022-11-08T00:34:12.941Z,98204.44
2022-11-08T00:39:17.143Z,98201.78
2022-11-08T00:44:19.994Z,98214.78
2022-11-08T00:49:22.753Z,98212.59
2022-11-08T00:54:26.914Z,98202.59
2022-11-08T00:59:29.751Z,98203.06
2022-11-08T01:04:32.986Z,98203.31
2022-11-08T01:09:37.644Z,98206.44
2022-11-08T01:14:40.347Z,98200.03
2022-11-08T01:19:43.059Z,98198.41
2022-11-08T01:24:47.256Z,98195.91
2022-11-08T01:29:50.081Z,98190.94
2022-11-08T01:34:52.826Z,98197.91
2022-11-08T01:39:57.042Z,98192.44
2022-11-08T01:45:00.234Z,98189.94
2022-11-08T01:50:06.888Z,98183.78
2022-11-08T01:55:17.295Z,98188.97
2022-11-08T02:00:20.828Z,98190.53
2022-11-08T02:05:27.632Z,98183.50
2022-11-08T02:10:36.105Z,98172.75
2022-11-08T02:15:38.907Z,98167.34
2022-11-08T02:20:49.051Z,98168.41
2022-11-08T02:25:53.257Z,98158.84
2022-11-08T02:30:56.005Z,98149.94
2022-11-08T02:35:59.536Z,98145.28
2022-11-08T02:41:03.872Z,98138.88
2022-11-08T02:46:06.852Z,98134.31
2022-11-08T02:51:09.632Z,98134.31
2022-11-08T02:56:13.793Z,98128.75
2022-11-08T03:01:16.672Z,98114.91
2022-11-08T03:06:19.421Z,98115.88
2022-11-08T03:11:23.613Z,98113.59
2022-11-08T03:16:26.527Z,98103.13
2022-11-08T03:21:29.304Z,98083.63
2022-11-08T03:26:34.024Z,98095.31
2022-11-08T03:31:36.759Z,98072.00
2022-11-08T03:36:39.511Z,98076.44
2022-11-08T03:41:43.578Z,98073.94
2022-11-08T03:46:46.384Z,98069.69
2022-11-08T03:51:49.091Z,98077.75
2022-11-08T03:56:53.254Z,98075.56
2022-11-08T04:01:56.169Z,98069.78
2022-11-08T04:06:59.069Z,98063.41
2022-11-08T04:12:20.702Z,98055.25
2022-11-08T04:17:44.267Z,98043.09
2022-11-08T04:22:46.972Z,98045.03
2022-11-08T04:27:51.110Z,98042.88
2022-11-08T04:32:53.929Z,98040.72
2022-11-08T04:37:59.494Z,98029.03
2022-11-08T04:43:03.671Z,98031.06
2022-11-08T04:48:07.117Z,98027.47
2022-11-08T04:53:09.948Z,98015.69
2022-11-08T04:58:14.033Z,98006.88
2022-11-08T05:03:16.807Z,97998.94
2022-11-08T05:08:19.982Z,97997.84
2022-11-08T05:13:24.342Z,97985.56
2022-11-08T05:18:27.169Z,97993.75
2022-11-08T05:23:29.926Z,97985.22
2022-11-08T05:28:34.323Z,97987.25
2022-11-08T05:33:37.470Z,97995.91
2022-11-08T05:38:41.287Z,97991.25
2022-11-08T05:43:47.225Z,97971.09
2022-11-08T05:48:50.557Z,97977.63
2022-11-08T05:53:53.294Z,97979.91
2022-11-08T05:58:57.542Z,97965.56
2022-11-08T06:04:00.292Z,97959.31
2022-11-08T06:09:03.075Z,97941.22
2022-11-08T06:14:07.749Z,97940.25
2022-11-08T06:19:10.526Z,97927.09
2022-11-08T06:24:13.313Z,97919.53
2022-11-08T06:29:17.527Z,97927.38
2022-11-08T06:34:20.257Z,97932.34
2022-11-08T06:39:23.413Z,97934.97
2022-11-08T06:44:27.516Z,97929.28
2022-11-08T06:49:30.481Z,97937.72
2022-11-08T06:54:33.335Z,97938.22
2022-11-08T06:59:37.549Z,97952.50
2022-11-08T07:04:40.265Z,97952.03
2022-11-08T07:09:43.765Z,97954.78
2022-11-08T07:14:47.837Z,97956.69
2022-11-08T07:19:50.734Z,97964.97
2022-11-08T07:24:53.506Z,97957.72
2022-11-08T07:29:58.165Z,97960.78
2022-11-08T07:35:00.898Z,97974.13
2022-11-08T07:40:03.703Z,97986.06
2022-11-08T07:45:10.400Z,97988.50
2022-11-08T07:50:16.378Z,97987.13
2022-11-08T07:55:20.948Z,97988.34
2022-11-08T08:00:25.267Z,97988.34
2022-11-08T08:05:28.943Z,97980.81
2022-11-08T08:10:32.746Z,97989.56
2022-11-08T08:15:37.223Z,97985.63
2022-11-08T08:20:40.103Z,97996.41
2022-11-08T08:25:43.114Z,97994.81
2022-11-08T08:30:47.966Z,97984.84
2022-11-08T08:35:53.237Z,97988.69
2022-11-08T08:40:56.011Z,97986.31
2022-11-08T08:46:02.370Z,97981.63
2022-11-08T08:51:05.746Z,97981.25
2022-11-08T08:56:10.209Z,97971.97
2022-11-08T09:06:38.490Z,97963.88
2022-11-08T09:11:41.669Z,97960.22
2022-11-08T09:16:45.795Z,97967.13
2022-11-08T09:21:48.746Z,97960.50
2022-11-08T09:26:51.618Z,97967.25
2022-11-08T09:31:58.046Z,97951.63
2022-11-08T09:37:01.519Z,97945.84
2022-11-08T09:42:31.814Z,97945.16
2022-11-08T09:47:39.727Z,97935.59
2022-11-08T09:52:46.654Z,97944.41
2022-11-08T09:57:57.580Z,97951.69
2022-11-08T10:03:03.430Z,97949.63
2022-11-08T10:08:12.300Z,97954.94
2022-11-08T10:13:22.614Z,97950.63
2022-11-08T10:18:54.118Z,97968.47
2022-11-08T10:24:03.987Z,97969.22
2022-11-08T10:29:11.025Z,97975.47
2022-11-08T10:34:18.657Z,97971.69
2022-11-08T10:39:25.367Z,97961.94
2022-11-08T10:44:29.222Z,97971.50
2022-11-08T10:49:35.872Z,97973.56
2022-11-08T10:54:44.531Z,97961.06
2022-11-08T10:59:47.339Z,97949.59
2022-11-08T11:04:52.177Z,97951.41
2022-11-08T11:09:55.297Z,97954.03
2022-11-08T11:14:59.454Z,97941.38
2022-11-08T11:20:04.012Z,97938.88
2022-11-08T11:25:15.322Z,97936.91
2022-11-08T11:30:28.202Z,97923.34
2022-11-08T11:35:56.523Z,97912.31
2022-11-08T11:41:10.616Z,97917.38
2022-11-08T11:46:21.542Z,97924.31
2022-11-08T11:51:29.177Z,97914.94
2022-11-08T11:56:46.671Z,97910.44
2022-11-08T12:02:01.287Z,97911.28
2022-11-08T12:07:12.646Z,97912.25
2022-11-08T12:12:30.364Z,97914.66
2022-11-08T12:17:48.201Z,97902.25
2022-11-08T12:28:58.331Z,97903.06
2022-11-08T12:34:18.940Z,97903.25
2022-11-08T12:39:33.882Z,97883.16
2022-11-08T12:45:04.342Z,97870.03
2022-11-08T12:50:21.590Z,97855.31
2022-11-08T12:55:31.290Z,97861.19
2022-11-08T13:00:36.759Z,97863.34
2022-11-08T13:05:46.914Z,97859.00
2022-11-08T13:10:59.650Z,97859.38
2022-11-08T13:16:12.311Z,97863.16
2022-11-08T13:21:38.025Z,97853.78
2022-11-08T13:26:43.463Z,97848.81
2022-11-08T13:31:53.167Z,97846.94
2022-11-08T13:37:18.142Z,97849.22
2022-11-08T13:43:00.788Z,97837.34
2022-11-08T13:48:06.525Z,97840.69
2022-11-08T13:53:12.234Z,97852.56
2022-11-08T13:58:35.947Z,97855.56
2022-11-08T14:03:54.967Z,97837.13
2022-11-08T14:09:04.375Z,97845.97
2022-11-08T14:14:18.962Z,97856.00
2022-11-08T14:19:23.961Z,97842.38
2022-11-08T14:24:29.455Z,97829.97
2022-11-08T14:29:33.896Z,97838.31
2022-11-08T14:34:38.929Z,97835.13
2022-11-08T14:39:46.688Z,97826.44
2022-11-08T14:44:54.370Z,97824.94
2022-11-08T14:49:57.575Z,97818.06
2022-11-08T14:55:05.762Z,97824.09
2022-11-08T15:00:18.292Z,97833.44
2022-11-08T15:05:43.290Z,97829.41
2022-11-08T15:10:55.042Z,97832.22
2022-11-08T15:16:04.409Z,97826.16
2022-11-08T15:21:21.651Z,97819.66
2022-11-08T15:26:26.801Z,97821.56
2022-11-08T15:31:33.803Z,97827.84
2022-11-08T15:36:37.684Z,97819.75
2022-11-08T15:41:43.170Z,97822.38
2022-11-08T15:46:47.641Z,97814.31
2022-11-08T15:51:51.704Z,97814.41
2022-11-08T15:56:56.834Z,97826.84
2022-11-08T16:02:03.576Z,97818.63
2022-11-08T16:07:06.587Z,97800.56
2022-11-08T16:12:12.095Z,97813.38
2022-11-08T16:17:16.306Z,97809.56
2022-11-08T16:22:19.461Z,97801.38
2022-11-08T16:27:22.270Z,97792.00
2022-11-08T16:32:26.470Z,97788.41
2022-11-08T16:37:29.303Z,97789.19
2022-11-08T16:42:32.196Z,97799.47
2022-11-08T16:47:36.830Z,97795.53
2022-11-08T16:52:39.710Z,97791.44
2022-11-08T16:57:42.843Z,97794.28
2022-11-08T17:02:49.732Z,97799.25
2022-11-08T17:07:53.520Z,97796.72
2022-11-08T17:12:57.198Z,97806.88
2022-11-08T17:18:03.134Z,97801.56
2022-11-08T17:23:06.131Z,97794.69
2022-11-08T17:28:08.901Z,97796.66
2022-11-08T17:33:14.297Z,97803.97
2022-11-08T17:38:17.130Z,97798.66
2022-11-08T17:43:21.278Z,97806.66
2022-11-08T17:48:25.967Z,97813.81
2022-11-08T17:53:29.053Z,97812.13
2022-11-08T17:58:33.840Z,97812.28
2022-11-08T18:03:38.324Z,97826.75
2022-11-08T18:08:42.428Z,97813.91
2022-11-08T18:13:45.162Z,97808.38
2022-11-08T18:18:50.082Z,97809.38
2022-11-08T18:23:52.901Z,97813.91
2022-11-08T18:28:56.464Z,97799.69
2022-11-08T18:34:01.802Z,97799.16
2022-11-08T18:39:04.955Z,97801.00
2022-11-08T18:44:07.789Z,97806.34
2022-11-08T18:49:12.848Z,97807.31
2022-11-08T18:54:15.712Z,97799.00
2022-11-08T18:59:18.664Z,97789.19
2022-11-08T19:04:22.914Z,97779.34
2022-11-08T19:09:25.799Z,97786.66
2022-11-08T19:14:28.622Z,97778.97
2022-11-08T19:19:32.830Z,97781.63
2022-11-08T19:24:35.565Z,97788.28
2022-11-08T19:29:38.460Z,97790.78
2022-11-08T19:34:45.271Z,97784.06
2022-11-08T19:39:48.310Z,97792.38
2022-11-08T19:44:51.061Z,97796.59
2022-11-08T19:49:55.322Z,97802.97
2022-11-08T19:54:58.131Z,97806.25
2022-11-08T20:00:02.523Z,97815.25
2022-11-08T20:05:16.588Z,97815.25
2022-11-08T20:10:19.479Z,97824.94
2022-11-08T20:15:22.775Z,97823.78
2022-11-08T20:20:27.075Z,97839.50
2022-11-08T20:25:30.309Z,97837.94
2022-11-08T20:30:33.590Z,97829.09
2022-11-08T20:35:38.877Z,97832.34
2022-11-08T20:40:44.017Z,97832.03
2022-11-08T20:45:48.158Z,97825.47
2022-11-08T20:50:52.768Z,97833.97
2022-11-08T20:55:59.108Z,97844.34
2022-11-08T21:01:03.531Z,97863.72
2022-11-08T21:06:09.602Z,97867.91
2022-11-08T21:11:14.055Z,97870.81
2022-11-08T21:16:29.906Z,97871.94
2022-11-08T21:21:36.005Z,97871.78
2022-11-08T21:26:38.826Z,97865.63
2022-11-08T21:31:41.748Z,97852.56
2022-11-08T21:36:45.826Z,97845.81
2022-11-08T21:41:48.756Z,97830.97
2022-11-08T21:46:51.609Z,97832.19
2022-11-08T21:51:55.729Z,97838.63
2022-11-08T21:56:58.469Z,97859.44
2022-11-08T22:02:01.246Z,97832.50
2022-11-08T22:07:05.359Z,97843.50
2022-11-08T22:12:08.330Z,97849.16
2022-11-08T22:17:11.283Z,97851.81
2022-11-08T22:22:16.602Z,97857.63
2022-11-08T22:27:19.417Z,97861.84
2022-11-08T22:32:22.180Z,97844.78
2022-11-08T22:37:26.320Z,97848.06
2022-11-08T22:42:29.036Z,97843.34
2022-11-08T22:47:31.810Z,97827.94
2022-11-08T22:52:35.982Z,97847.19
2022-11-08T22:57:38.819Z,97835.09
2022-11-08T23:02:41.632Z,97831.59
2022-11-08T23:07:45.784Z,97832.72
2022-11-08T23:13:06.336Z,97827.25
2022-11-08T23:18:09.065Z,97815.97
2022-11-08T23:23:30.598Z,97815.97
2022-11-08T23:28:50.713Z,97816.63
2022-11-08T23:33:53.485Z,97810.06
2022-11-08T23:38:57.880Z,97809.31
2022-11-08T23:44:18.406Z,97800.06
2022-11-08T23:49:21.929Z,97786.91
2022-11-08T23:54:26.034Z,97790.56
2022-11-08T23:59:28.743Z,97793.44
